createdAt,value
2022-11-15T00:02:28.641Z,23.42
2022-11-15T00:05:29.918Z,19.00
2022-11-15T00:08:31.449Z,19.83
2022-11-15T00:11:32.774Z,20.90
2022-11-15T00:14:33.840Z,21.63
2022-11-15T00:17:36.822Z,20.60
2022-11-15T00:20:38.155Z,19.25
2022-11-15T00:23:39.412Z,20.42
2022-11-15T00:26:40.885Z,25.00
2022-11-15T00:29:44.208Z,20.55
2022-11-15T00:32:46.672Z,19.92
2022-11-15T00:35:47.979Z,20.30
2022-11-15T00:38:48.953Z,21.20
2022-11-15T00:41:50.426Z,19.85
2022-11-15T00:44:51.270Z,20.17
2022-11-15T00:47:53.948Z,20.10
2022-11-15T00:50:55.385Z,19.65
2022-11-15T00:53:56.530Z,19.23
2022-11-15T00:56:57.793Z,18.20
2022-11-15T00:59:58.755Z,18.95
2022-11-15T01:03:01.750Z,21.05
2022-11-15T01:06:03.081Z,19.25
2022-11-15T01:09:04.133Z,19.38
2022-11-15T01:12:05.411Z,19.95
2022-11-15T01:15:07.258Z,20.52
2022-11-15T01:18:10.380Z,20.35
2022-11-15T01:21:12.411Z,20.98
2022-11-15T01:24:14.522Z,18.25
2022-11-15T01:27:15.828Z,18.50
2022-11-15T01:30:17.504Z,20.27
2022-11-15T01:33:19.902Z,20.17
2022-11-15T01:36:23.161Z,19.83
2022-11-15T01:39:24.239Z,19.15
2022-11-15T01:42:25.609Z,19.60
2022-11-15T01:45:27.135Z,20.02
2022-11-15T01:48:32.659Z,20.02
2022-11-15T01:51:34.850Z,18.90
2022-11-15T01:54:36.090Z,19.75
2022-11-15T01:57:37.616Z,19.42
2022-11-15T02:00:38.550Z,19.38
2022-11-15T02:03:44.290Z,21.70
2022-11-15T02:06:46.394Z,20.85
2022-11-15T02:09:47.887Z,19.45
2022-11-15T02:12:49.588Z,19.20
2022-11-15T02:15:53.547Z,17.92
2022-11-15T02:18:59.501Z,19.10
2022-11-15T02:22:07.120Z,16.95
2022-11-15T02:25:17.125Z,19.33
2022-11-15T02:28:32.975Z,17.20
2022-11-15T02:31:39.071Z,20.27
2022-11-15T02:34:45.419Z,17.98
2022-11-15T02:37:49.802Z,19.48
2022-11-15T02:40:54.371Z,17.52
2022-11-15T02:43:58.701Z,18.75
2022-11-15T02:47:14.597Z,19.15
2022-11-15T02:50:17.822Z,19.33
2022-11-15T02:53:19.156Z,18.13
2022-11-15T02:56:20.475Z,17.10
2022-11-15T02:59:42.614Z,16.38
2022-11-15T03:02:50.176Z,17.98
2022-11-15T03:05:55.448Z,15.60
2022-11-15T03:09:00.271Z,16.38
2022-11-15T03:12:02.992Z,16.02
2022-11-15T03:15:07.491Z,18.80
2022-11-15T03:18:14.742Z,16.15
2022-11-15T03:21:16.444Z,18.77
2022-11-15T03:24:20.871Z,16.92
2022-11-15T03:27:27.870Z,17.55
2022-11-15T03:30:29.317Z,19.80
2022-11-15T03:33:33.210Z,16.60
2022-11-15T03:36:35.597Z,15.52
2022-11-15T03:39:37.094Z,17.15
2022-11-15T03:42:41.775Z,17.58
2022-11-15T03:45:45.830Z,15.07
2022-11-15T03:48:51.447Z,16.52
2022-11-15T03:51:52.623Z,18.60
2022-11-15T03:54:55.118Z,15.32
2022-11-15T03:57:59.819Z,17.35
2022-11-15T04:01:01.293Z,16.95
2022-11-15T04:04:04.328Z,16.95
2022-11-15T04:07:05.459Z,14.75
2022-11-15T04:10:07.544Z,15.73
2022-11-15T04:13:08.905Z,14.60
2022-11-15T04:16:10.228Z,16.25
2022-11-15T04:19:30.266Z,19.20
2022-11-15T04:22:48.741Z,16.23
2022-11-15T04:25:52.192Z,15.68
2022-11-15T04:29:11.076Z,14.88
2022-11-15T04:32:12.337Z,14.13
2022-11-15T04:35:15.411Z,14.95
2022-11-15T04:38:16.663Z,15.15
2022-11-15T04:41:18.025Z,13.85
2022-11-15T04:44:19.113Z,17.20
2022-11-15T04:47:21.002Z,14.85
2022-11-15T04:50:23.771Z,17.05
2022-11-15T04:53:25.139Z,18.02
2022-11-15T04:56:26.682Z,17.30
2022-11-15T04:59:27.669Z,17.20
2022-11-15T05:02:49.355Z,13.07
2022-11-15T05:05:51.125Z,16.52
2022-11-15T05:08:52.427Z,14.48
2022-11-15T05:11:53.691Z,15.75
2022-11-15T05:14:54.665Z,16.42
2022-11-15T05:17:59.153Z,16.48
2022-11-15T05:21:06.507Z,14.27
2022-11-15T05:24:07.822Z,18.52
2022-11-15T05:27:09.430Z,16.20
2022-11-15T05:30:10.760Z,13.73
2022-11-15T05:33:11.991Z,17.08
2022-11-15T05:36:17.421Z,16.15
2022-11-15T05:39:18.355Z,17.55
2022-11-15T05:42:20.604Z,19.05
2022-11-15T05:45:26.705Z,18.55
2022-11-15T05:48:28.046Z,17.33
2022-11-15T05:51:31.465Z,19.33
2022-11-15T05:54:33.572Z,16.10
2022-11-15T05:57:35.280Z,15.82
2022-11-15T06:00:36.331Z,14.43
2022-11-15T06:03:37.583Z,17.20
2022-11-15T06:06:40.243Z,15.95
2022-11-15T06:09:41.387Z,16.30
2022-11-15T06:12:42.670Z,14.48
2022-11-15T06:15:43.885Z,16.25
2022-11-15T06:18:45.358Z,15.43
2022-11-15T06:21:48.061Z,16.48
2022-11-15T06:24:49.110Z,15.02
2022-11-15T06:27:52.895Z,16.30
2022-11-15T06:30:54.001Z,15.60
2022-11-15T06:33:55.200Z,15.30
2022-11-15T06:36:57.970Z,16.23
2022-11-15T06:39:59.309Z,14.80
2022-11-15T06:43:01.294Z,16.33
2022-11-15T06:46:02.714Z,16.85
2022-11-15T06:49:09.426Z,16.23
2022-11-15T06:52:12.744Z,14.65
2022-11-15T06:55:14.875Z,15.40
2022-11-15T06:58:15.850Z,16.27
2022-11-15T07:01:17.468Z,15.25
2022-11-15T07:04:19.062Z,18.33
2022-11-15T07:07:21.626Z,18.10
2022-11-15T07:10:24.297Z,14.82
2022-11-15T07:13:26.323Z,13.70
2022-11-15T07:16:27.489Z,14.55
2022-11-15T07:19:28.935Z,15.13
2022-11-15T07:22:31.515Z,13.50
2022-11-15T07:25:33.246Z,16.38
2022-11-15T07:28:34.529Z,15.00
2022-11-15T07:31:36.489Z,15.85
2022-11-15T07:34:37.558Z,16.33
2022-11-15T07:37:40.495Z,13.60
2022-11-15T07:40:41.801Z,11.80
2022-11-15T07:43:43.003Z,13.82
2022-11-15T07:46:44.283Z,14.50
2022-11-15T07:49:45.288Z,15.07
2022-11-15T07:52:48.125Z,12.05
2022-11-15T07:55:49.465Z,13.82
2022-11-15T07:58:51.262Z,16.33
2022-11-15T08:01:52.456Z,14.85
2022-11-15T08:04:54.011Z,14.82
2022-11-15T08:07:58.254Z,13.85
2022-11-15T08:10:59.662Z,15.90
2022-11-15T08:14:01.066Z,13.88
2022-11-15T08:17:02.338Z,13.88
2022-11-15T08:20:04.366Z,13.85
2022-11-15T08:23:07.494Z,15.50
2022-11-15T08:26:08.729Z,13.68
2022-11-15T08:29:09.791Z,13.95
2022-11-15T08:32:11.801Z,11.23
2022-11-15T08:35:13.291Z,15.85
2022-11-15T08:38:16.952Z,15.02
2022-11-15T08:41:22.044Z,15.10
2022-11-15T08:44:24.994Z,13.52
2022-11-15T08:47:26.392Z,14.02
2022-11-15T08:50:27.762Z,13.70
2022-11-15T08:53:30.343Z,14.40
2022-11-15T08:56:31.697Z,13.38
2022-11-15T08:59:32.968Z,14.95
2022-11-15T09:02:34.400Z,13.85
2022-11-15T09:05:38.088Z,14.00
2022-11-15T09:08:47.583Z,15.25
2022-11-15T09:12:02.446Z,11.93
2022-11-15T09:15:04.843Z,13.02
2022-11-15T09:18:06.571Z,12.95
2022-11-15T09:21:08.170Z,12.93
2022-11-15T09:24:11.164Z,14.23
2022-11-15T09:27:13.518Z,14.07
2022-11-15T09:30:15.149Z,11.60
2022-11-15T09:33:16.649Z,11.70
2022-11-15T09:36:18.261Z,12.57
2022-11-15T09:39:20.951Z,15.65
2022-11-15T09:42:31.407Z,12.30
2022-11-15T09:45:34.499Z,13.27
2022-11-15T09:48:43.940Z,14.18
2022-11-15T09:51:49.597Z,13.60
2022-11-15T09:54:52.918Z,11.23
2022-11-15T09:57:40.942Z,11.10
2022-11-15T10:03:30.955Z,14.23
2022-11-15T10:06:20.021Z,14.70
2022-11-15T10:09:03.908Z,12.52
2022-11-15T10:11:48.008Z,12.40
2022-11-15T10:14:32.226Z,11.57
2022-11-15T10:17:29.067Z,12.70
2022-11-15T10:20:15.467Z,10.48
2022-11-15T10:23:00.793Z,9.95
2022-11-15T10:25:44.790Z,13.48
2022-11-15T10:28:30.387Z,12.77
2022-11-15T10:31:23.789Z,12.57
2022-11-15T10:34:14.745Z,11.35
2022-11-15T10:36:58.114Z,13.10
2022-11-15T10:39:40.976Z,11.85
2022-11-15T10:42:28.173Z,12.13
2022-11-15T10:45:24.659Z,11.77
2022-11-15T10:48:24.487Z,14.18
2022-11-15T10:51:20.925Z,9.95
2022-11-15T10:54:07.786Z,10.75
2022-11-15T10:56:54.075Z,9.88
2022-11-15T10:59:39.373Z,10.90
2022-11-15T11:02:34.600Z,10.23
2022-11-15T11:05:36.579Z,10.13
2022-11-15T11:08:25.200Z,10.32
2022-11-15T11:11:08.523Z,12.35
2022-11-15T11:13:51.490Z,11.48
2022-11-15T11:16:44.399Z,10.63
2022-11-15T11:19:40.117Z,12.82
2022-11-15T11:22:26.881Z,10.32
2022-11-15T11:25:16.948Z,13.25
2022-11-15T11:28:06.015Z,9.77
2022-11-15T11:30:52.458Z,9.70
2022-11-15T11:33:37.222Z,10.48
2022-11-15T11:36:25.710Z,10.10
2022-11-15T11:39:15.573Z,10.52
2022-11-15T11:42:02.298Z,9.50
2022-11-15T11:44:49.190Z,8.68
2022-11-15T11:47:34.617Z,8.77
2022-11-15T11:50:20.058Z,10.55
2022-11-15T11:53:06.461Z,9.65
2022-11-15T11:55:52.022Z,11.05
2022-11-15T11:58:36.664Z,8.95
2022-11-15T12:01:23.056Z,9.95
2022-11-15T12:04:07.854Z,10.88
2022-11-15T12:06:55.677Z,11.40
2022-11-15T12:09:41.432Z,8.07
2022-11-15T12:12:27.203Z,9.27
2022-11-15T12:15:14.734Z,9.65
2022-11-15T12:17:58.017Z,10.40
2022-11-15T12:20:42.698Z,9.63
2022-11-15T12:23:29.786Z,9.68
2022-11-15T12:26:18.782Z,11.13
2022-11-15T12:29:09.444Z,9.68
2022-11-15T12:31:53.497Z,8.82
2022-11-15T12:34:42.583Z,8.70
2022-11-15T12:37:35.627Z,8.50
2022-11-15T12:40:20.578Z,11.52
2022-11-15T12:43:24.351Z,8.93
2022-11-15T12:46:12.674Z,8.52
2022-11-15T12:48:59.042Z,10.18
2022-11-15T12:52:06.753Z,8.23
2022-11-15T12:54:56.862Z,8.90
2022-11-15T12:57:41.488Z,9.85
2022-11-15T13:00:45.174Z,9.52
2022-11-15T13:03:30.375Z,9.30
2022-11-15T13:06:28.141Z,8.85
2022-11-15T13:09:29.516Z,11.02
2022-11-15T13:12:14.690Z,8.77
2022-11-15T13:14:58.429Z,9.93
2022-11-15T13:17:41.935Z,8.93
2022-11-15T13:20:30.247Z,8.40
2022-11-15T13:23:15.931Z,8.50
2022-11-15T13:26:13.475Z,10.15
2022-11-15T13:28:57.291Z,12.30
2022-11-15T13:31:42.501Z,10.85
2022-11-15T13:37:33.508Z,11.00
2022-11-15T13:40:28.392Z,10.13
2022-11-15T13:43:19.466Z,9.70
2022-11-15T13:46:09.669Z,8.50
2022-11-15T13:48:56.785Z,7.55
2022-11-15T13:51:42.329Z,7.25
2022-11-15T13:54:29.255Z,7.20
2022-11-15T13:57:13.599Z,7.28
2022-11-15T13:59:57.750Z,10.90
2022-11-15T14:02:40.690Z,10.05
2022-11-15T14:05:24.212Z,10.05
2022-11-15T14:08:22.907Z,8.90
2022-11-15T14:11:17.205Z,9.90
2022-11-15T14:14:14.768Z,10.48
2022-11-15T14:16:58.174Z,8.77
2022-11-15T14:19:41.860Z,8.73
2022-11-15T14:22:26.979Z,8.45
2022-11-15T14:25:16.968Z,9.00
2022-11-15T14:28:18.713Z,9.27
2022-11-15T14:31:02.277Z,8.18
2022-11-15T14:33:45.302Z,9.07
2022-11-15T14:36:27.996Z,10.30
2022-11-15T14:39:10.797Z,8.52
2022-11-15T14:41:53.732Z,9.57
2022-11-15T14:44:41.160Z,8.82
2022-11-15T14:47:27.685Z,8.60
2022-11-15T14:50:13.369Z,7.82
2022-11-15T14:52:56.146Z,6.82
2022-11-15T14:55:38.995Z,9.15
2022-11-15T14:58:21.796Z,11.10
2022-11-15T15:01:12.708Z,8.23
2022-11-15T15:03:57.992Z,8.55
2022-11-15T15:06:40.954Z,9.25
2022-11-15T15:09:23.932Z,7.38
2022-11-15T15:12:07.842Z,7.78
2022-11-15T15:14:52.130Z,9.50
2022-11-15T15:17:36.254Z,8.90
2022-11-15T15:20:19.467Z,7.40
2022-11-15T15:23:02.317Z,8.00
2022-11-15T15:25:46.561Z,9.68
2022-11-15T15:28:34.244Z,8.05
2022-11-15T15:31:17.724Z,8.90
2022-11-15T15:34:02.097Z,6.40
2022-11-15T15:36:44.878Z,8.18
2022-11-15T15:39:27.813Z,7.78
2022-11-15T15:42:10.681Z,8.13
2022-11-15T15:44:53.673Z,8.73
2022-11-15T15:47:36.448Z,8.45
2022-11-15T15:50:22.696Z,8.15
2022-11-15T15:53:05.796Z,8.35
2022-11-15T15:55:48.581Z,7.43
2022-11-15T15:58:33.132Z,7.18
2022-11-15T16:01:16.150Z,7.57
2022-11-15T16:03:58.933Z,9.13
2022-11-15T16:06:45.242Z,8.82
2022-11-15T16:09:42.117Z,9.27
2022-11-15T16:12:24.881Z,8.45
2022-11-15T16:15:08.217Z,8.40
2022-11-15T16:17:52.842Z,9.02
2022-11-15T16:20:37.190Z,9.93
2022-11-15T16:23:24.571Z,10.02
2022-11-15T16:26:13.015Z,8.05
2022-11-15T16:28:55.738Z,9.70
2022-11-15T16:31:38.582Z,8.07
2022-11-15T16:34:21.438Z,9.77
2022-11-15T16:37:04.203Z,10.25
2022-11-15T16:39:48.322Z,7.60
2022-11-15T16:42:31.075Z,7.65
2022-11-15T16:45:14.874Z,8.15
2022-11-15T16:47:57.728Z,8.15
2022-11-15T16:50:43.228Z,9.27
2022-11-15T16:53:26.094Z,8.80
2022-11-15T16:56:19.518Z,9.13
2022-11-15T16:59:02.948Z,8.45
2022-11-15T17:01:52.775Z,7.95
2022-11-15T17:04:35.592Z,7.65
2022-11-15T17:07:18.417Z,9.85
2022-11-15T17:10:01.228Z,8.50
2022-11-15T17:12:45.624Z,8.80
2022-11-15T17:15:28.426Z,7.43
2022-11-15T17:18:12.243Z,8.75
2022-11-15T17:20:55.260Z,8.25
2022-11-15T17:23:38.001Z,7.78
2022-11-15T17:26:40.319Z,8.88
2022-11-15T17:29:24.927Z,6.80
2022-11-15T17:32:07.723Z,7.80
2022-11-15T17:34:50.556Z,6.28
2022-11-15T17:37:33.463Z,9.85
2022-11-15T17:40:16.909Z,7.13
2022-11-15T17:42:59.713Z,7.22
2022-11-15T17:45:43.959Z,10.52
2022-11-15T17:48:27.246Z,7.22
2022-11-15T17:51:11.662Z,9.23
2022-11-15T17:53:54.463Z,8.35
2022-11-15T17:56:39.554Z,9.13
2022-11-15T17:59:22.348Z,7.72
2022-11-15T18:02:07.007Z,10.20
2022-11-15T18:04:50.767Z,9.05
2022-11-15T18:07:33.756Z,9.07
2022-11-15T18:10:16.841Z,9.75
2022-11-15T18:12:59.713Z,11.73
2022-11-15T18:15:42.463Z,9.48
2022-11-15T18:18:26.604Z,6.93
2022-11-15T18:21:11.239Z,10.77
2022-11-15T18:23:54.488Z,9.88
2022-11-15T18:26:37.237Z,9.52
2022-11-15T18:29:21.426Z,9.20
2022-11-15T18:32:06.455Z,7.72
2022-11-15T18:34:50.601Z,8.95
2022-11-15T18:37:33.357Z,10.07
2022-11-15T18:40:16.157Z,12.63
2022-11-15T18:42:58.945Z,9.15
2022-11-15T18:45:41.660Z,8.38
2022-11-15T18:48:24.442Z,8.85
2022-11-15T18:51:09.246Z,9.55
2022-11-15T18:53:53.735Z,7.45
2022-11-15T18:56:36.534Z,11.60
2022-11-15T18:59:19.883Z,9.23
2022-11-15T19:02:02.736Z,8.65
2022-11-15T19:04:45.623Z,8.23
2022-11-15T19:07:29.862Z,10.25
2022-11-15T19:10:12.901Z,9.98
2022-11-15T19:12:56.055Z,10.35
2022-11-15T19:15:38.816Z,8.93
2022-11-15T19:18:21.579Z,10.15
2022-11-15T19:21:04.947Z,11.15
2022-11-15T19:23:49.181Z,10.23
2022-11-15T19:26:32.215Z,8.38
2022-11-15T19:29:15.122Z,9.38
2022-11-15T19:31:57.935Z,9.40
2022-11-15T19:34:41.743Z,9.95
2022-11-15T19:37:24.492Z,9.38
2022-11-15T19:40:09.990Z,10.90
2022-11-15T19:42:53.390Z,12.68
2022-11-15T19:45:36.705Z,12.55
2022-11-15T19:48:19.764Z,12.75
2022-11-15T19:51:02.983Z,14.43
2022-11-15T19:53:46.027Z,13.05
2022-11-15T19:56:30.260Z,15.07
2022-11-15T19:59:13.640Z,11.60
2022-11-15T20:01:56.437Z,12.77
2022-11-15T20:04:39.811Z,10.02
2022-11-15T20:07:22.937Z,13.40
2022-11-15T20:10:06.109Z,12.48
2022-11-15T20:12:50.471Z,12.10
2022-11-15T20:15:33.396Z,11.82
2022-11-15T20:18:16.211Z,12.27
2022-11-15T20:20:59.340Z,14.57
2022-11-15T20:23:42.137Z,16.92
2022-11-15T20:26:25.179Z,14.80
2022-11-15T20:29:10.260Z,11.52
2022-11-15T20:31:53.140Z,14.32
2022-11-15T20:34:36.072Z,10.82
2022-11-15T20:37:20.010Z,14.15
2022-11-15T20:40:03.164Z,15.98
2022-11-15T20:42:46.089Z,15.50
2022-11-15T20:45:30.324Z,13.52
2022-11-15T20:48:13.915Z,14.23
2022-11-15T20:51:04.596Z,12.45
2022-11-15T20:53:47.730Z,12.50
2022-11-15T20:56:30.821Z,12.32
2022-11-15T20:59:13.916Z,14.05
2022-11-15T21:01:58.220Z,15.98
2022-11-15T21:04:41.185Z,14.50
2022-11-15T21:07:24.008Z,12.77
2022-11-15T21:10:24.543Z,13.95
2022-11-15T21:13:07.453Z,12.73
2022-11-15T21:15:50.085Z,14.80
2022-11-15T21:18:34.618Z,13.70
2022-11-15T21:21:17.859Z,12.70
2022-11-15T21:24:00.707Z,10.77
2022-11-15T21:26:43.522Z,13.43
2022-11-15T21:29:26.621Z,11.95
2022-11-15T21:32:10.080Z,14.45
2022-11-15T21:34:54.431Z,15.52
2022-11-15T21:37:37.449Z,11.27
2022-11-15T21:40:20.269Z,14.00
2022-11-15T21:43:03.038Z,12.18
2022-11-15T21:45:46.349Z,13.65
2022-11-15T21:48:30.051Z,13.10
2022-11-15T21:51:14.380Z,12.90
2022-11-15T21:53:57.147Z,13.32
2022-11-15T21:56:39.882Z,13.38
2022-11-15T21:59:22.665Z,14.63
2022-11-15T22:02:16.413Z,14.18
2022-11-15T22:04:59.235Z,12.43
2022-11-15T22:07:43.410Z,12.88
2022-11-15T22:10:26.155Z,14.18
2022-11-15T22:13:08.924Z,15.18
2022-11-15T22:15:53.518Z,14.07
2022-11-15T22:18:36.547Z,11.60
2022-11-15T22:21:19.929Z,14.68
2022-11-15T22:24:04.284Z,13.43
2022-11-15T22:26:47.202Z,13.20
2022-11-15T22:29:30.234Z,12.80
2022-11-15T22:32:13.140Z,15.45
2022-11-15T22:34:56.062Z,16.17
2022-11-15T22:37:39.033Z,13.05
2022-11-15T22:40:23.431Z,16.40
2022-11-15T22:43:06.500Z,14.07
2022-11-15T22:45:53.419Z,13.30
2022-11-15T22:48:37.616Z,13.82
2022-11-15T22:51:20.780Z,13.25
2022-11-15T22:54:03.615Z,13.32
2022-11-15T22:56:47.826Z,15.10
2022-11-15T22:59:30.674Z,12.20
2022-11-15T23:02:13.564Z,14.48
2022-11-15T23:04:56.382Z,12.40
2022-11-15T23:07:39.271Z,15.13
2022-11-15T23:10:39.341Z,14.65
2022-11-15T23:13:23.577Z,13.63
2022-11-15T23:16:33.085Z,13.20
2022-11-15T23:19:15.862Z,11.40
2022-11-15T23:22:15.975Z,12.48
2022-11-15T23:24:59.684Z,13.10
2022-11-15T23:27:42.511Z,16.38
2022-11-15T23:30:44.208Z,14.18
2022-11-15T23:33:44.424Z,15.70
2022-11-15T23:36:28.130Z,13.77
2022-11-15T23:39:11.071Z,15.32
2022-11-15T23:41:53.927Z,14.50
2022-11-15T23:44:36.809Z,14.82
2022-11-15T23:47:21.108Z,14.30
2022-11-15T23:50:04.087Z,19.98
2022-11-15T23:52:46.893Z,16.25
2022-11-15T23:55:29.625Z,16.73
2022-11-15T23:58:12.478Z,17.48
